Time;durP1;ratioP1;P1;durP2;ratioP2;P2;SDS_P1;SDS_P2;PMS_P1;PMS_P2;Temp;Humidity;BMP_temperature;BMP_pressure;BME280_temperature;BME280_humidity;BME280_pressure;Samples;Min_cycle;Max_cycle;Signal;HPM_P1;HPM_P2
2022/05/05 00:01:32;;;;;;;5.25;4.43;;;11.30;85.20;;;;;;5011635;28;20043;-77
2022/05/05 00:04:00;;;;;;;5.53;4.22;;;11.30;85.50;;;;;;4994896;28;20030;-77
2022/05/05 00:06:29;;;;;;;8.18;5.18;;;11.30;85.50;;;;;;4995375;28;20073;-77
2022/05/05 00:08:55;;;;;;;7.22;4.50;;;11.30;85.60;;;;;;4995192;28;20049;-76
2022/05/05 00:14:23;;;;;;;6.25;4.47;;;11.20;86.00;;;;;;4996597;28;20030;-76
2022/05/05 00:16:50;;;;;;;8.57;4.53;;;11.10;85.90;;;;;;4994913;28;20038;-77
2022/05/05 00:19:15;;;;;;;6.45;4.75;;;11.20;85.90;;;;;;4994804;28;20034;-76
2022/05/05 00:21:41;;;;;;;5.60;4.40;;;11.20;85.70;;;;;;4994749;28;20496;-76
2022/05/05 00:24:07;;;;;;;6.90;4.60;;;11.20;85.80;;;;;;4994839;28;20460;-76
2022/05/05 00:26:33;;;;;;;5.68;4.20;;;11.20;85.80;;;;;;4994861;28;20026;-76
2022/05/05 00:28:59;;;;;;;6.82;4.35;;;11.20;85.60;;;;;;4994291;28;20357;-76
2022/05/05 00:31:26;;;;;;;9.45;5.18;;;11.20;85.70;;;;;;4994795;28;20377;-77
2022/05/05 00:33:52;;;;;;;4.03;3.72;;;11.20;85.80;;;;;;4994563;28;20029;-76
2022/05/05 00:36:17;;;;;;;5.28;4.53;;;11.30;85.80;;;;;;4994751;28;20026;-76
2022/05/05 00:38:45;;;;;;;7.68;4.53;;;11.20;85.60;;;;;;4995781;28;20047;-77
2022/05/05 00:41:10;;;;;;;4.88;4.20;;;11.20;85.60;;;;;;4994413;28;20034;-77
2022/05/05 00:43:36;;;;;;;7.90;4.20;;;11.30;85.50;;;;;;4995972;28;20292;-77
2022/05/05 00:46:03;;;;;;;5.82;4.22;;;11.20;85.50;;;;;;4994490;28;20045;-76
2022/05/05 00:48:29;;;;;;;11.20;5.15;;;11.20;85.80;;;;;;4995490;28;20022;-77
2022/05/05 00:50:56;;;;;;;5.35;4.60;;;11.20;86.20;;;;;;4994495;28;20049;-76
2022/05/05 00:53:23;;;;;;;5.45;4.15;;;11.20;86.50;;;;;;4994487;28;20034;-77
2022/05/05 00:55:52;;;;;;;5.45;4.43;;;11.20;86.30;;;;;;4994361;28;20026;-76
2022/05/05 00:58:18;;;;;;;5.15;4.18;;;11.20;86.20;;;;;;4993973;28;20037;-76
2022/05/05 01:00:44;;;;;;;4.95;4.43;;;11.10;86.40;;;;;;4994093;28;20046;-77
2022/05/05 01:03:11;;;;;;;5.65;4.40;;;11.10;86.20;;;;;;4994002;28;20018;-77
2022/05/05 01:05:38;;;;;;;5.68;4.47;;;11.10;86.30;;;;;;4994013;28;20034;-77
2022/05/05 01:08:04;;;;;;;6.57;4.10;;;11.10;86.40;;;;;;5010320;28;20034;-77
2022/05/05 01:10:31;;;;;;;4.97;4.18;;;11.00;86.40;;;;;;4993929;28;20688;-77
2022/05/05 01:12:56;;;;;;;5.57;4.65;;;11.00;86.60;;;;;;4993756;28;20472;-77
2022/05/05 01:15:22;;;;;;;6.20;4.45;;;11.00;86.90;;;;;;4994129;28;20041;-77
2022/05/05 01:17:48;;;;;;;7.78;4.68;;;11.00;86.90;;;;;;4994016;28;20038;-77
2022/05/05 01:20:16;;;;;;;5.18;4.35;;;11.00;86.90;;;;;;4993911;28;20030;-77
2022/05/05 01:22:41;;;;;;;7.05;5.03;;;11.10;86.70;;;;;;4993850;28;20023;-77
2022/05/05 01:30:36;;;;;;;7.32;4.78;;;11.00;86.80;;;;;;4995144;28;20037;-77
2022/05/05 01:33:10;;;;;;;6.47;4.40;;;11.00;86.90;;;;;;4993640;28;20030;-77
2022/05/05 01:35:36;;;;;;;7.83;5.10;;;11.00;87.00;;;;;;4993692;28;20035;-76
2022/05/05 01:38:02;;;;;;;6.68;4.50;;;11.00;87.20;;;;;;4993391;28;20105;-76
2022/05/05 01:40:27;;;;;;;5.18;4.22;;;11.00;87.10;;;;;;4992453;28;20046;-76
2022/05/05 01:42:53;;;;;;;9.25;4.78;;;11.10;87.00;;;;;;4993602;28;20464;-76
2022/05/05 01:45:19;;;;;;;6.75;4.95;;;11.10;86.90;;;;;;4993646;28;20547;-77
2022/05/05 01:47:44;;;;;;;8.25;4.60;;;11.00;86.80;;;;;;4993308;28;20031;-77
2022/05/05 01:50:10;;;;;;;6.45;4.75;;;11.10;87.70;;;;;;4993554;28;20121;-76
2022/05/05 01:52:35;;;;;;;8.80;4.93;;;11.10;86.80;;;;;;4993229;28;20050;-77
2022/05/05 01:55:01;;;;;;;6.15;4.68;;;11.10;86.60;;;;;;4993299;28;20041;-76
2022/05/05 01:57:27;;;;;;;8.48;4.55;;;11.10;86.40;;;;;;4993064;28;20022;-77
2022/05/05 01:59:53;;;;;;;6.00;4.45;;;11.10;86.40;;;;;;4993068;28;20055;-74
2022/05/05 02:02:19;;;;;;;4.57;3.92;;;11.10;86.80;;;;;;4993296;28;20027;-74
2022/05/05 02:04:44;;;;;;;5.93;4.72;;;11.10;86.50;;;;;;4993094;28;20029;-77
2022/05/05 02:07:10;;;;;;;8.82;4.40;;;11.10;86.40;;;;;;4993018;28;20026;-77
2022/05/05 02:09:36;;;;;;;8.30;4.53;;;11.10;86.50;;;;;;4992850;28;20030;-77
2022/05/05 02:12:02;;;;;;;7.50;4.78;;;11.10;86.40;;;;;;4992997;28;20058;-77
2022/05/05 02:14:28;;;;;;;5.53;4.25;;;11.10;86.40;;;;;;4993199;28;20052;-77
2022/05/05 02:16:54;;;;;;;6.70;4.57;;;11.20;86.70;;;;;;4993150;28;20069;-77
2022/05/05 02:19:20;;;;;;;8.27;4.88;;;11.20;86.50;;;;;;4992889;28;20042;-77
2022/05/05 02:21:46;;;;;;;5.38;4.72;;;11.10;86.60;;;;;;4993112;28;20022;-77
2022/05/05 02:24:12;;;;;;;5.82;4.30;;;11.10;86.50;;;;;;4992934;28;20027;-77
2022/05/05 02:26:37;;;;;;;5.57;5.05;;;11.20;86.40;;;;;;4992969;28;20080;-77
2022/05/05 02:29:03;;;;;;;5.00;4.50;;;11.20;86.30;;;;;;4992949;28;20030;-77
2022/05/05 02:31:29;;;;;;;8.00;4.57;;;11.20;86.30;;;;;;4993925;28;20033;-77
2022/05/05 02:33:54;;;;;;;6.05;4.40;;;11.20;86.20;;;;;;4992662;28;20022;-78
2022/05/05 02:39:05;;;;;;;6.55;5.32;;;11.20;86.20;;;;;;4993963;28;20038;-76
2022/05/05 02:41:31;;;;;;;5.95;5.07;;;11.20;86.30;;;;;;4992629;28;20493;-76
2022/05/05 02:43:57;;;;;;;6.53;5.00;;;11.20;86.20;;;;;;4992647;28;20065;-76
2022/05/05 02:46:24;;;;;;;6.82;5.25;;;11.20;86.00;;;;;;4992676;28;20022;-76
2022/05/05 02:48:49;;;;;;;7.18;5.95;;;11.20;86.10;;;;;;4992401;28;20018;-77
2022/05/05 02:51:15;;;;;;;8.95;6.60;;;11.20;86.00;;;;;;4992392;28;20459;-76
2022/05/05 02:56:24;;;;;;;7.07;5.57;;;11.20;85.90;;;;;;4993913;28;20088;-76
2022/05/05 02:58:52;;;;;;;5.70;5.07;;;11.10;85.90;;;;;;4992088;28;20023;-76
2022/05/05 03:01:19;;;;;;;6.78;4.85;;;11.10;86.10;;;;;;4992134;28;20054;-76
2022/05/05 03:03:45;;;;;;;7.35;5.68;;;11.00;86.20;;;;;;4992102;28;20100;-75
2022/05/05 03:06:10;;;;;;;7.53;4.93;;;11.00;86.30;;;;;;4992314;28;20077;-76
2022/05/05 03:08:36;;;;;;;4.97;4.35;;;11.00;86.60;;;;;;4992562;28;20026;-76
2022/05/05 03:11:01;;;;;;;5.38;4.82;;;11.00;86.50;;;;;;4992409;28;20487;-76
2022/05/05 03:13:27;;;;;;;6.40;5.18;;;11.00;86.50;;;;;;4992238;28;20054;-76
2022/05/05 03:15:52;;;;;;;7.82;5.35;;;11.00;86.40;;;;;;4992048;28;20468;-75
2022/05/05 03:18:18;;;;;;;6.00;5.32;;;10.90;86.60;;;;;;4992079;28;20476;-76
2022/05/05 03:20:44;;;;;;;7.30;5.00;;;10.90;86.80;;;;;;4993684;28;20038;-76
2022/05/05 03:23:09;;;;;;;7.10;4.85;;;10.90;87.00;;;;;;4991723;28;20030;-76
2022/05/05 03:25:35;;;;;;;7.07;5.35;;;10.90;87.00;;;;;;4992297;28;20041;-76
2022/05/05 03:28:00;;;;;;;7.20;5.68;;;10.90;87.10;;;;;;4992361;28;20023;-76
2022/05/05 03:30:26;;;;;;;7.75;5.35;;;10.90;87.20;;;;;;4992101;28;20034;-78
2022/05/05 03:32:51;;;;;;;6.63;4.75;;;10.80;86.90;;;;;;4991871;28;20431;-76
2022/05/05 03:35:17;;;;;;;8.10;5.18;;;10.80;87.00;;;;;;4993539;28;20038;-76
2022/05/05 03:37:43;;;;;;;7.22;5.30;;;10.80;87.20;;;;;;4992145;28;20473;-75
2022/05/05 03:40:09;;;;;;;6.68;4.80;;;10.80;87.10;;;;;;4991982;28;20472;-76
2022/05/05 03:42:34;;;;;;;8.95;5.30;;;10.80;87.10;;;;;;4991647;28;20026;-73
2022/05/05 03:45:00;;;;;;;6.85;5.13;;;10.80;86.90;;;;;;4991851;28;20414;-74
2022/05/05 03:47:25;;;;;;;6.00;5.10;;;10.80;87.00;;;;;;4991474;28;20369;-74
2022/05/05 03:49:51;;;;;;;7.05;5.30;;;10.90;87.10;;;;;;4991743;28;20022;-73
2022/05/05 03:52:18;;;;;;;8.75;5.40;;;10.90;86.80;;;;;;4992019;28;20094;-73
2022/05/05 03:54:43;;;;;;;8.48;5.10;;;10.90;86.60;;;;;;4991785;28;20034;-73
2022/05/05 03:57:09;;;;;;;8.90;5.60;;;10.90;86.40;;;;;;4991786;28;20081;-74
2022/05/05 03:59:34;;;;;;;8.93;5.32;;;11.00;86.10;;;;;;4991597;28;20036;-73
2022/05/05 04:02:00;;;;;;;6.18;5.57;;;11.00;86.20;;;;;;4991807;28;20034;-74
2022/05/05 04:04:25;;;;;;;7.30;4.95;;;11.00;86.10;;;;;;4995103;28;20034;-73
2022/05/05 04:06:51;;;;;;;6.70;5.60;;;10.90;86.10;;;;;;4995395;28;20053;-73
2022/05/05 04:09:17;;;;;;;8.30;5.50;;;10.90;86.20;;;;;;4995233;28;20053;-74
2022/05/05 04:11:42;;;;;;;6.00;5.32;;;10.90;86.20;;;;;;4995419;28;20030;-73
2022/05/05 04:14:08;;;;;;;7.40;5.25;;;10.90;86.40;;;;;;4996421;28;20018;-73
2022/05/05 04:16:34;;;;;;;6.78;5.30;;;10.90;86.30;;;;;;4995091;28;20097;-73
2022/05/05 04:19:04;;;;;;;7.20;5.93;;;10.90;86.20;;;;;;4994947;28;20472;-73
2022/05/05 04:21:30;;;;;;;11.27;6.10;;;10.90;86.10;;;;;;4995130;28;20058;-73
2022/05/05 04:23:56;;;;;;;8.98;6.50;;;10.90;86.20;;;;;;4994993;28;20490;-73
2022/05/05 04:26:23;;;;;;;7.38;6.15;;;10.90;86.10;;;;;;4994962;28;20134;-73
2022/05/05 04:28:50;;;;;;;8.05;6.32;;;10.90;86.00;;;;;;4994812;28;20022;-73
2022/05/05 04:31:17;;;;;;;8.80;5.78;;;10.80;85.90;;;;;;4994896;28;20046;-74
2022/05/05 04:33:44;;;;;;;9.93;6.45;;;10.80;86.10;;;;;;4994816;28;20030;-73
2022/05/05 04:36:11;;;;;;;8.30;5.95;;;10.80;86.30;;;;;;4994795;28;20034;-73
2022/05/05 04:38:37;;;;;;;8.60;5.97;;;10.80;86.30;;;;;;4994796;28;20037;-73
2022/05/05 04:41:03;;;;;;;8.52;6.53;;;10.90;86.40;;;;;;4994544;28;20034;-73
2022/05/05 04:43:29;;;;;;;7.82;5.95;;;10.90;86.70;;;;;;4994604;28;20027;-73
2022/05/05 04:45:54;;;;;;;11.30;6.10;;;10.90;86.30;;;;;;4994379;28;20026;-73
2022/05/05 04:48:20;;;;;;;10.30;6.70;;;11.00;86.10;;;;;;4995455;28;20026;-74
2022/05/05 04:50:45;;;;;;;9.25;6.32;;;11.10;86.00;;;;;;4994684;28;20053;-74
2022/05/05 04:53:11;;;;;;;13.73;7.50;;;11.10;85.80;;;;;;4994413;28;20080;-73
2022/05/05 04:55:37;;;;;;;11.98;8.00;;;11.10;85.50;;;;;;4994226;28;20034;-73
2022/05/05 04:58:02;;;;;;;9.05;7.22;;;11.20;85.30;;;;;;4994253;28;20031;-73
2022/05/05 05:00:29;;;;;;;8.13;6.47;;;11.20;85.00;;;;;;4993804;28;20050;-73
2022/05/05 05:02:56;;;;;;;10.52;7.18;;;11.20;84.80;;;;;;4994346;28;20026;-73
2022/05/05 05:05:21;;;;;;;9.50;6.85;;;11.20;85.00;;;;;;4994283;28;20054;-74
2022/05/05 05:07:47;;;;;;;8.20;6.35;;;11.20;85.10;;;;;;4993816;28;20061;-73
2022/05/05 05:10:13;;;;;;;9.10;6.57;;;11.20;85.20;;;;;;4993904;28;20500;-75
2022/05/05 05:12:38;;;;;;;8.43;6.20;;;11.20;85.20;;;;;;4993880;28;20027;-73
2022/05/05 05:15:05;;;;;;;8.63;6.25;;;11.30;85.30;;;;;;4992597;28;20028;-73
2022/05/05 05:17:30;;;;;;;11.10;6.93;;;11.40;85.20;;;;;;4993836;28;20030;-72
2022/05/05 05:19:58;;;;;;;10.02;6.53;;;11.40;85.10;;;;;;4994468;28;20030;-73
2022/05/05 05:22:23;;;;;;;8.90;6.20;;;11.50;85.00;;;;;;4993486;28;20022;-73
2022/05/05 05:24:49;;;;;;;7.53;6.13;;;11.50;84.80;;;;;;4992727;28;20113;-73
2022/05/05 05:27:15;;;;;;;7.35;5.72;;;11.60;84.50;;;;;;4992638;28;20030;-73
2022/05/05 05:29:40;;;;;;;13.13;7.22;;;11.60;84.10;;;;;;4992454;28;20472;-74
2022/05/05 05:32:06;;;;;;;7.18;6.40;;;11.70;84.00;;;;;;4993071;28;20030;-74
2022/05/05 05:34:32;;;;;;;9.77;6.78;;;11.70;83.50;;;;;;4993164;28;20026;-74
2022/05/05 05:36:57;;;;;;;8.73;6.97;;;11.70;83.80;;;;;;4993260;28;20538;-77
2022/05/05 05:39:23;;;;;;;12.82;7.63;;;11.70;83.80;;;;;;4993335;28;20041;-77
2022/05/05 05:41:49;;;;;;;12.57;7.43;;;11.70;83.80;;;;;;4993236;28;20446;-77
2022/05/05 05:44:14;;;;;;;12.30;7.47;;;11.70;84.00;;;;;;4993024;28;20491;-75
2022/05/05 05:46:40;;;;;;;9.80;6.78;;;11.80;84.20;;;;;;4993427;28;20030;-74
2022/05/05 05:49:05;;;;;;;8.68;6.57;;;11.80;84.10;;;;;;4993220;28;20015;-74
2022/05/05 05:51:32;;;;;;;9.63;7.78;;;11.80;84.10;;;;;;4992965;28;20439;-74
2022/05/05 05:53:57;;;;;;;8.65;6.30;;;11.90;84.40;;;;;;4993090;28;20037;-75
2022/05/05 05:56:24;;;;;;;6.65;5.95;;;11.90;84.50;;;;;;4993048;28;20408;-74
2022/05/05 05:58:49;;;;;;;7.97;4.90;;;11.90;84.40;;;;;;4992999;28;20032;-74
2022/05/05 06:01:15;;;;;;;5.93;5.00;;;11.90;84.60;;;;;;4992729;28;20057;-73
2022/05/05 06:03:56;;;;;;;6.22;5.53;;;11.90;84.60;;;;;;4992849;28;20510;-74
2022/05/05 06:06:25;;;;;;;8.70;6.82;;;11.90;84.60;;;;;;4992996;28;20125;-74
2022/05/05 06:08:51;;;;;;;7.80;6.15;;;11.90;84.60;;;;;;4992731;28;20022;-73
2022/05/05 06:11:19;;;;;;;8.15;6.65;;;11.90;84.70;;;;;;4992614;28;20392;-76
2022/05/05 06:13:44;;;;;;;9.23;6.47;;;11.90;84.70;;;;;;4993003;28;20073;-75
2022/05/05 06:16:10;;;;;;;7.13;6.40;;;12.00;84.80;;;;;;4992831;28;20049;-74
2022/05/05 06:18:39;;;;;;;10.32;7.55;;;12.00;84.80;;;;;;4992679;28;20396;-75
2022/05/05 06:21:06;;;;;;;8.60;6.90;;;12.00;84.80;;;;;;4992312;28;20034;-74
2022/05/05 06:23:32;;;;;;;11.38;7.82;;;12.00;84.90;;;;;;4992381;28;20026;-75
2022/05/05 06:25:58;;;;;;;10.25;7.65;;;12.00;85.10;;;;;;4992092;28;20041;-74
2022/05/05 06:28:23;;;;;;;10.82;8.00;;;12.00;85.20;;;;;;4992343;28;20412;-75
2022/05/05 06:30:49;;;;;;;12.63;8.35;;;12.00;85.20;;;;;;4992512;28;20022;-75
2022/05/05 06:33:14;;;;;;;12.30;8.05;;;12.10;85.30;;;;;;4992466;28;20026;-75
2022/05/05 06:35:40;;;;;;;12.20;8.13;;;12.20;85.10;;;;;;4992072;28;20428;-76
2022/05/05 06:38:05;;;;;;;9.32;7.20;;;12.20;85.10;;;;;;4992113;28;20026;-76
2022/05/05 06:40:31;;;;;;;10.50;7.55;;;12.20;85.00;;;;;;4992583;28;20045;-75
2022/05/05 06:42:57;;;;;;;11.40;8.35;;;12.30;84.80;;;;;;4993989;28;20544;-77
2022/05/05 06:45:22;;;;;;;11.50;7.68;;;12.30;84.60;;;;;;4994646;28;20034;-76
2022/05/05 06:47:48;;;;;;;10.05;7.28;;;12.40;84.20;;;;;;4993781;28;20396;-77
2022/05/05 06:50:16;;;;;;;10.52;7.15;;;12.40;84.10;;;;;;4993000;28;20026;-78
2022/05/05 06:52:42;;;;;;;9.70;6.93;;;12.50;84.00;;;;;;4993476;28;20030;-78
2022/05/05 06:55:09;;;;;;;8.75;6.50;;;12.60;83.50;;;;;;4992696;28;20496;-78
2022/05/05 06:57:34;;;;;;;10.05;7.40;;;12.70;83.30;;;;;;4992875;28;20054;-77
2022/05/05 07:00:00;;;;;;;9.80;7.97;;;12.70;82.90;;;;;;4992668;28;20074;-77
2022/05/05 07:02:25;;;;;;;9.75;7.55;;;12.80;82.70;;;;;;4992518;28;20037;-75
2022/05/05 07:07:35;;;;;;;9.05;7.13;;;12.80;82.40;;;;;;4993743;28;20395;-77
2022/05/05 07:12:44;;;;;;;18.05;8.82;;;12.80;82.00;;;;;;4993605;28;20041;-77
2022/05/05 07:15:12;;;;;;;10.90;7.90;;;12.80;82.80;;;;;;4992018;28;20026;-73
2022/05/05 07:17:38;;;;;;;10.07;7.40;;;12.60;82.30;;;;;;4991771;28;20065;-74
2022/05/05 07:20:03;;;;;;;10.77;7.97;;;12.50;82.50;;;;;;4991678;28;20492;-77
2022/05/05 07:22:29;;;;;;;11.57;9.30;;;12.50;82.10;;;;;;4991777;28;20029;-74
2022/05/05 07:24:54;;;;;;;8.80;7.90;;;12.40;83.10;;;;;;4992013;28;20113;-75
2022/05/05 07:27:21;;;;;;;13.70;9.32;;;12.30;82.70;;;;;;4991849;28;20036;-74
2022/05/05 07:29:46;;;;;;;12.38;8.55;;;12.30;82.40;;;;;;4991907;28;20086;-73
2022/05/05 07:32:12;;;;;;;8.23;7.13;;;12.30;82.90;;;;;;4991261;28;20046;-74
2022/05/05 07:34:39;;;;;;;11.30;8.95;;;12.30;82.90;;;;;;4991553;28;20121;-73
2022/05/05 07:37:04;;;;;;;11.98;9.85;;;12.40;83.20;;;;;;4992023;28;20404;-73
2022/05/05 07:39:30;;;;;;;11.50;9.82;;;12.30;84.20;;;;;;4995502;28;20030;-74
2022/05/05 07:41:56;;;;;;;12.55;9.07;;;12.10;85.50;;;;;;4995794;28;20476;-74
2022/05/05 07:44:21;;;;;;;13.63;8.90;;;12.20;84.90;;;;;;4996777;28;20113;-77
2022/05/05 07:46:47;;;;;;;20.58;9.48;;;12.40;88.00;;;;;;4995421;28;20037;-76
2022/05/05 07:49:13;;;;;;;15.27;7.93;;;12.60;87.00;;;;;;4995276;28;20019;-75
2022/05/05 07:51:39;;;;;;;19.50;8.18;;;12.80;84.40;;;;;;4995364;28;20037;-75
2022/05/05 07:56:52;;;;;;;11.00;7.78;;;13.30;82.70;;;;;;4996789;28;20053;-75
2022/05/05 07:59:19;;;;;;;11.15;7.43;;;13.50;81.80;;;;;;4996446;28;20026;-77
2022/05/05 08:01:44;;;;;;;8.93;7.93;;;13.60;80.90;;;;;;4995046;28;20054;-77
2022/05/05 08:04:10;;;;;;;8.98;7.20;;;13.70;80.30;;;;;;4996427;28;20045;-76
2022/05/05 08:06:35;;;;;;;9.98;7.25;;;13.70;79.90;;;;;;4996571;28;20042;-76
2022/05/05 08:09:01;;;;;;;7.38;6.65;;;13.80;79.80;;;;;;4995958;28;20063;-76
2022/05/05 08:11:28;;;;;;;7.90;6.70;;;13.80;79.60;;;;;;4996130;28;20415;-75
2022/05/05 08:13:54;;;;;;;9.93;8.40;;;13.80;78.80;;;;;;4996136;28;20030;-74
2022/05/05 08:16:20;;;;;;;9.70;7.85;;;13.70;79.40;;;;;;4995923;28;20030;-75
2022/05/05 08:18:45;;;;;;;8.35;6.72;;;13.70;79.90;;;;;;4996009;28;20029;-77
2022/05/05 08:21:11;;;;;;;7.78;6.63;;;13.50;79.80;;;;;;4995718;28;20038;-78
2022/05/05 08:23:37;;;;;;;10.38;8.68;;;13.50;80.00;;;;;;4995400;28;20026;-75
2022/05/05 08:28:47;;;;;;;10.13;8.15;;;13.10;80.60;;;;;;4996041;28;20049;-74
2022/05/05 08:31:13;;;;;;;9.63;7.57;;;13.10;80.80;;;;;;4995835;28;20493;-76
2022/05/05 08:33:39;;;;;;;8.40;7.10;;;13.10;81.10;;;;;;4994566;28;20030;-77
2022/05/05 08:36:06;;;;;;;13.35;10.95;;;13.10;81.40;;;;;;4995430;28;20464;-75
2022/05/05 08:38:32;;;;;;;12.75;8.27;;;13.10;82.20;;;;;;4995715;28;20026;-75
2022/05/05 08:40:58;;;;;;;12.80;9.60;;;13.20;82.20;;;;;;4995594;28;20116;-77
2022/05/05 08:43:24;;;;;;;14.27;9.48;;;13.30;82.40;;;;;;4995574;28;20381;-79
2022/05/05 08:45:55;;;;;;;14.10;10.05;;;13.40;82.50;;;;;;4995578;28;20034;-78
2022/05/05 08:48:21;;;;;;;11.55;9.15;;;13.50;82.00;;;;;;4995328;28;20015;-75
2022/05/05 08:50:52;;;;;;;13.77;9.93;;;13.70;81.50;;;;;;4995522;28;20026;-77
2022/05/05 08:53:20;;;;;;;13.80;11.18;;;13.80;81.30;;;;;;4995620;28;20027;-76
2022/05/05 08:55:45;;;;;;;13.52;10.15;;;13.80;81.40;;;;;;4995418;28;20023;-79
2022/05/05 08:58:11;;;;;;;11.55;9.95;;;13.70;81.20;;;;;;4995289;28;20376;-79
2022/05/05 09:00:37;;;;;;;11.48;9.82;;;13.80;81.30;;;;;;4994647;28;20051;-77
2022/05/05 09:03:04;;;;;;;11.52;8.93;;;13.90;81.20;;;;;;4995003;28;20109;-79
2022/05/05 09:05:45;;;;;;;11.07;9.27;;;14.00;81.40;;;;;;4994968;28;20030;-77
2022/05/05 09:08:14;;;;;;;12.57;10.93;;;14.10;81.10;;;;;;4995141;28;20023;-78
2022/05/05 09:10:48;;;;;;;14.48;11.07;;;14.10;81.20;;;;;;4995088;28;20069;-78
2022/05/05 09:13:21;;;;;;;12.18;10.07;;;14.10;80.50;;;;;;4994956;28;20038;-78
2022/05/05 09:15:46;;;;;;;13.82;11.23;;;14.00;81.00;;;;;;4995008;28;20435;-80
2022/05/05 09:18:14;;;;;;;13.93;11.65;;;14.10;81.30;;;;;;4994926;28;20030;-79
2022/05/05 09:20:41;;;;;;;14.02;10.88;;;14.00;81.90;;;;;;4994701;28;20038;-78
2022/05/05 09:23:06;;;;;;;13.57;10.77;;;14.10;81.40;;;;;;4994990;28;20026;-78
2022/05/05 09:25:46;;;;;;;14.93;11.10;;;14.10;81.20;;;;;;4994805;28;20033;-79
2022/05/05 09:28:23;;;;;;;13.85;11.27;;;14.10;81.10;;;;;;4995047;28;20022;-79
2022/05/05 09:30:53;;;;;;;18.95;11.45;;;14.10;80.60;;;;;;4993489;28;20030;-79
2022/05/05 09:33:36;;;;;;;13.57;11.05;;;14.10;80.30;;;;;;4995978;28;20117;-78
2022/05/05 09:36:07;;;;;;;12.90;10.93;;;14.30;80.50;;;;;;4996300;28;20472;-78
2022/05/05 09:38:53;;;;;;;17.17;12.35;;;14.40;80.20;;;;;;4996854;28;20069;-78
2022/05/05 09:41:32;;;;;;;17.85;12.85;;;14.40;80.00;;;;;;4995601;28;20115;-79
2022/05/05 09:44:02;;;;;;;13.35;11.95;;;14.30;81.10;;;;;;4995076;28;20445;-79
2022/05/05 09:46:28;;;;;;;17.20;13.05;;;14.30;81.60;;;;;;4994046;28;20041;-77
2022/05/05 09:49:08;;;;;;;16.73;12.73;;;14.30;80.60;;;;;;4996081;28;20388;-78
2022/05/05 09:51:40;;;;;;;15.85;12.82;;;14.30;80.10;;;;;;4994955;28;20117;-78
2022/05/05 09:59:40;;;;;;;18.65;13.52;;;14.30;79.80;;;;;;4993730;28;20037;-77
2022/05/05 10:03:59;;;;;;;20.23;13.90;;;14.60;79.40;;;;;;4993497;28;20022;-77
2022/05/05 10:05:08;;;;;;;21.80;13.32;;;14.50;78.00;;;;;;4993853;28;20027;-76
2022/05/05 10:07:35;;;;;;;17.77;13.50;;;14.40;78.00;;;;;;4994109;28;20019;-77
2022/05/05 10:10:02;;;;;;;17.17;13.88;;;14.30;78.70;;;;;;4993876;28;20027;-77
2022/05/05 10:12:28;;;;;;;15.73;13.60;;;14.30;79.20;;;;;;4993487;28;20202;-74
2022/05/05 10:14:57;;;;;;;16.80;13.38;;;14.30;78.80;;;;;;4993806;28;20392;-80
2022/05/05 10:17:23;;;;;;;18.65;13.60;;;14.30;78.20;;;;;;4992321;28;20141;-82
2022/05/05 10:19:50;;;;;;;13.02;10.57;;;14.40;77.90;;;;;;4993755;28;20026;-79
2022/05/05 10:22:25;;;;;;;14.05;11.38;;;14.60;77.40;;;;;;4994521;28;20022;-88
2022/05/05 10:24:57;;;;;;;18.60;12.82;;;14.80;77.70;;;;;;4991955;28;20022;-78
2022/05/05 10:27:23;;;;;;;16.75;14.32;;;15.00;76.30;;;;;;4993367;28;20169;-76
2022/05/05 10:29:48;;;;;;;17.50;14.32;;;14.90;75.20;;;;;;4992106;28;20476;-76
2022/05/05 10:32:22;;;;;;;18.83;14.25;;;14.70;75.80;;;;;;4993739;28;20480;-77
2022/05/05 10:35:04;;;;;;;18.35;13.90;;;14.70;75.50;;;;;;4993471;28;20031;-78
2022/05/05 10:37:36;;;;;;;19.27;13.93;;;14.90;76.00;;;;;;4992192;28;20029;-77
2022/05/05 10:40:09;;;;;;;14.98;12.45;;;15.00;75.50;;;;;;4993182;28;20034;-77
2022/05/05 10:42:40;;;;;;;13.40;11.85;;;15.20;75.40;;;;;;4993389;28;20060;-80
2022/05/05 10:45:16;;;;;;;14.00;12.27;;;15.40;75.10;;;;;;4993422;28;20026;-77
2022/05/05 10:48:01;;;;;;;16.90;13.57;;;15.60;74.30;;;;;;4993095;28;20022;-75
2022/05/05 10:50:44;;;;;;;17.67;13.87;;;15.40;73.70;;;;;;4992903;28;20080;-77
2022/05/05 10:53:37;;;;;;;16.13;14.43;;;15.50;74.40;;;;;;4992661;28;20309;-73
2022/05/05 10:56:06;;;;;;;17.63;13.52;;;15.70;74.00;;;;;;4992674;28;20023;-77
2022/05/05 10:58:57;;;;;;;18.38;14.43;;;15.80;74.10;;;;;;4993289;28;20027;-77
2022/05/05 11:01:23;;;;;;;18.23;15.38;;;16.00;74.00;;;;;;4992672;28;20053;-78
2022/05/05 11:04:05;;;;;;;16.42;12.55;;;15.90;72.80;;;;;;4992645;28;20018;-76
2022/05/05 11:06:32;;;;;;;16.70;12.75;;;16.00;73.10;;;;;;4992891;28;20022;-76
2022/05/05 11:08:59;;;;;;;14.00;12.10;;;16.10;73.50;;;;;;4992931;28;20487;-74
2022/05/05 11:11:40;;;;;;;19.25;14.45;;;16.20;74.00;;;;;;4993612;28;20526;-73
2022/05/05 11:23:05;;;;;;;16.35;13.50;;;16.30;72.10;;;;;;4997345;28;20041;-74
2022/05/05 11:25:32;;;;;;;16.05;13.68;;;16.40;72.20;;;;;;4996873;28;20243;-75
2022/05/05 11:27:58;;;;;;;13.70;10.88;;;16.40;71.70;;;;;;4997212;28;20034;-75
2022/05/05 11:30:24;;;;;;;13.65;11.18;;;16.40;70.20;;;;;;4996919;28;20023;-75
2022/05/05 11:32:49;;;;;;;12.85;11.43;;;16.40;70.50;;;;;;4996694;28;20392;-75
2022/05/05 11:35:21;;;;;;;12.10;10.77;;;16.30;70.20;;;;;;4996709;28;20030;-74
2022/05/05 11:37:48;;;;;;;18.17;13.75;;;16.40;70.40;;;;;;4996426;28;20037;-74
2022/05/05 11:40:14;;;;;;;18.73;13.38;;;16.40;69.70;;;;;;4996811;28;20066;-73
2022/05/05 11:45:34;;;;;;;18.88;13.48;;;16.00;70.70;;;;;;4996740;28;20400;-74
2022/05/05 11:48:14;;;;;;;16.13;13.77;;;15.80;70.90;;;;;;4996593;28;20472;-75
2022/05/05 11:50:44;;;;;;;19.77;14.93;;;15.70;71.80;;;;;;4996371;28;20030;-75
2022/05/05 11:53:19;;;;;;;18.20;14.73;;;15.60;72.80;;;;;;4996263;28;20027;-77
2022/05/05 11:55:52;;;;;;;17.73;14.13;;;15.50;72.80;;;;;;4996469;28;20515;-75
2022/05/05 12:01:36;;;;;;;16.23;13.02;;;15.40;73.50;;;;;;4996257;28;20037;-76
2022/05/05 12:04:02;;;;;;;20.35;14.88;;;15.80;73.20;;;;;;4996343;28;20100;-76
2022/05/05 12:06:30;;;;;;;17.63;13.75;;;15.60;72.00;;;;;;4996354;28;20041;-75
2022/05/05 12:08:56;;;;;;;18.75;13.00;;;15.50;72.80;;;;;;4996229;28;20031;-77
2022/05/05 12:11:25;;;;;;;15.27;13.63;;;15.60;72.80;;;;;;4996229;28;20029;-75
2022/05/05 12:13:51;;;;;;;18.85;14.90;;;15.50;71.90;;;;;;4996042;28;20022;-76
2022/05/05 12:16:19;;;;;;;16.98;14.10;;;15.60;72.30;;;;;;4996096;28;20037;-75
2022/05/05 12:18:52;;;;;;;18.63;14.13;;;15.80;71.70;;;;;;4996210;28;20074;-75
2022/05/05 12:21:26;;;;;;;16.98;12.63;;;16.00;71.20;;;;;;4996018;28;20034;-75
2022/05/05 12:24:02;;;;;;;13.90;12.48;;;16.20;70.10;;;;;;4995526;28;20018;-75
2022/05/05 12:26:34;;;;;;;15.00;11.50;;;16.30;70.00;;;;;;4996088;28;20034;-75
2022/05/05 12:29:00;;;;;;;14.57;12.43;;;16.40;69.40;;;;;;4995989;28;20018;-76
2022/05/05 12:31:29;;;;;;;12.05;10.85;;;16.40;68.20;;;;;;4995896;28;20105;-74
2022/05/05 12:33:56;;;;;;;13.40;10.57;;;16.40;68.50;;;;;;4996052;28;20393;-75
2022/05/05 12:36:28;;;;;;;11.57;9.73;;;16.30;67.10;;;;;;4995983;28;20066;-73
2022/05/05 12:39:09;;;;;;;13.82;11.27;;;16.30;67.50;;;;;;4995565;28;20101;-73
2022/05/05 12:41:35;;;;;;;11.98;10.48;;;16.20;68.20;;;;;;4995753;28;20053;-73
2022/05/05 12:44:10;;;;;;;13.52;10.23;;;16.20;68.30;;;;;;4995778;28;20022;-73
2022/05/05 12:46:51;;;;;;;14.02;11.43;;;16.00;68.20;;;;;;4995729;28;20022;-73
2022/05/05 12:49:34;;;;;;;12.85;10.77;;;15.90;69.00;;;;;;5003707;28;20014;-74
2022/05/05 12:52:00;;;;;;;14.00;10.98;;;15.90;70.10;;;;;;4998969;28;20065;-74
2022/05/05 12:59:55;;;;;;;11.63;9.57;;;15.90;69.70;;;;;;4995138;28;20057;-74
2022/05/05 13:02:21;;;;;;;12.48;10.45;;;16.00;69.60;;;;;;4995405;28;20109;-74
2022/05/05 13:04:48;;;;;;;13.68;10.50;;;16.10;69.30;;;;;;4995294;28;20578;-75
2022/05/05 13:07:14;;;;;;;13.68;10.75;;;16.10;68.50;;;;;;4995274;28;20022;-74
2022/05/05 13:09:39;;;;;;;13.10;11.27;;;16.10;68.90;;;;;;4995050;28;20026;-74
2022/05/05 13:12:06;;;;;;;16.83;11.15;;;16.00;69.30;;;;;;4994759;28;20030;-74
2022/05/05 13:14:32;;;;;;;13.98;10.40;;;16.00;69.30;;;;;;4994659;28;20384;-75
2022/05/05 13:16:58;;;;;;;11.43;10.30;;;15.90;69.70;;;;;;4995012;28;20026;-74
2022/05/05 13:19:25;;;;;;;10.20;8.75;;;16.10;69.60;;;;;;4994840;28;20029;-74
2022/05/05 13:21:51;;;;;;;13.55;10.77;;;16.10;68.80;;;;;;4994554;28;20046;-74
2022/05/05 13:24:17;;;;;;;12.70;9.88;;;16.20;69.10;;;;;;4992962;28;20057;-74
2022/05/05 13:26:45;;;;;;;11.73;10.45;;;16.10;68.60;;;;;;4994937;28;20116;-74
2022/05/05 13:29:11;;;;;;;12.98;9.30;;;16.10;69.10;;;;;;4994416;28;20018;-74
2022/05/05 13:31:37;;;;;;;12.30;9.43;;;16.20;69.60;;;;;;4994577;28;20468;-74